createdAt,value
2022-10-11T00:00:38.449Z,101538.75
2022-10-11T00:03:06.567Z,101536.09
2022-10-11T00:05:34.459Z,101546.19
2022-10-11T00:08:01.895Z,101548.34
2022-10-11T00:10:29.351Z,101549.84
2022-10-11T00:12:56.758Z,101554.13
2022-10-11T00:15:24.180Z,101555.88
2022-10-11T00:17:52.918Z,101569.56
2022-10-11T00:20:20.546Z,101570.56
2022-10-11T00:22:49.231Z,101574.13
2022-10-11T00:25:17.558Z,101577.28
2022-10-11T00:27:45.505Z,101584.59
2022-10-11T00:30:13.921Z,101582.34
2022-10-11T00:32:41.431Z,101590.56
2022-10-11T00:35:10.671Z,101594.66
2022-10-11T00:37:39.725Z,101599.47
2022-10-11T00:40:11.376Z,101601.38
2022-10-11T00:42:38.827Z,101604.25
2022-10-11T00:45:43.522Z,101617.69
2022-10-11T00:48:20.413Z,101613.34
2022-10-11T00:50:49.374Z,101609.25
2022-10-11T00:53:16.885Z,101613.53
2022-10-11T00:55:49.990Z,101611.03
2022-10-11T00:58:18.815Z,101617.28
2022-10-11T01:00:46.391Z,101617.44
2022-10-11T01:03:13.777Z,101618.81
2022-10-11T01:05:41.245Z,101623.25
2022-10-11T01:08:09.984Z,101622.34
2022-10-11T01:10:37.673Z,101626.72
2022-10-11T01:13:17.376Z,101628.50
2022-10-11T01:15:51.345Z,101633.75
2022-10-11T01:18:25.747Z,101638.13
2022-10-11T01:21:02.610Z,101644.31
2022-10-11T01:24:07.437Z,101646.72
2022-10-11T01:27:01.891Z,101654.00
2022-10-11T01:29:45.347Z,101644.94
2022-10-11T01:32:18.107Z,101652.84
2022-10-11T01:34:56.632Z,101658.34
2022-10-11T01:37:30.289Z,101659.28
2022-10-11T01:40:03.448Z,101663.84
2022-10-11T01:42:31.360Z,101669.06
2022-10-11T01:45:00.297Z,101667.19
2022-10-11T01:47:29.052Z,101660.41
2022-10-11T01:49:57.928Z,101658.59
2022-10-11T01:52:27.714Z,101667.19
2022-10-11T01:55:14.024Z,101666.94
2022-10-11T01:58:00.755Z,101669.88
2022-10-11T02:00:32.562Z,101676.59
2022-10-11T02:03:10.077Z,101679.28
2022-10-11T02:05:44.104Z,101683.47
2022-10-11T02:08:19.883Z,101689.13
2022-10-11T02:10:52.901Z,101695.31
2022-10-11T02:13:26.809Z,101694.28
2022-10-11T02:15:57.088Z,101696.53
2022-10-11T02:18:32.110Z,101697.56
2022-10-11T02:21:01.726Z,101701.81
2022-10-11T02:23:33.663Z,101702.81
2022-10-11T02:26:05.509Z,101705.97
2022-10-11T02:28:37.397Z,101698.88
2022-10-11T02:31:08.124Z,101703.34
2022-10-11T02:33:42.742Z,101702.41
2022-10-11T02:36:16.608Z,101707.75
2022-10-11T02:38:49.616Z,101710.66
2022-10-11T02:41:24.177Z,101711.38
2022-10-11T02:43:59.375Z,101706.88
2022-10-11T02:46:30.400Z,101714.75
2022-10-11T02:49:00.590Z,101715.28
2022-10-11T02:51:31.531Z,101716.28
2022-10-11T02:53:59.061Z,101719.56
2022-10-11T02:56:26.566Z,101723.88
2022-10-11T02:58:53.974Z,101718.94
2022-10-11T03:01:21.815Z,101723.72
2022-10-11T03:03:49.294Z,101718.72
2022-10-11T03:06:18.043Z,101730.47
2022-10-11T03:08:45.500Z,101739.22
2022-10-11T03:11:12.889Z,101744.97
2022-10-11T03:13:40.262Z,101741.78
2022-10-11T03:16:07.728Z,101753.88
2022-10-11T03:18:35.253Z,101749.47
2022-10-11T03:21:02.615Z,101751.06
2022-10-11T03:23:31.364Z,101754.59
2022-10-11T03:25:58.794Z,101762.34
2022-10-11T03:28:26.198Z,101764.94
2022-10-11T03:30:53.740Z,101774.47
2022-10-11T03:33:21.156Z,101777.84
2022-10-11T03:35:49.954Z,101784.66
2022-10-11T03:38:19.741Z,101782.91
2022-10-11T03:40:48.487Z,101781.22
2022-10-11T03:43:16.143Z,101778.88
2022-10-11T03:45:43.757Z,101781.59
2022-10-11T03:48:11.578Z,101781.66
2022-10-11T03:50:39.519Z,101779.25
2022-10-11T03:53:08.496Z,101799.59
2022-10-11T03:55:35.959Z,101796.91
2022-10-11T03:58:04.671Z,101793.66
2022-10-11T04:00:32.068Z,101795.44
2022-10-11T04:03:00.245Z,101800.66
2022-10-11T04:05:27.704Z,101809.19
2022-10-11T04:07:55.078Z,101811.66
2022-10-11T04:10:29.087Z,101810.81
2022-10-11T04:12:56.455Z,101819.38
2022-10-11T04:15:25.336Z,101817.75
2022-10-11T04:17:52.696Z,101820.84
2022-10-11T04:20:20.212Z,101825.81
2022-10-11T04:22:47.624Z,101831.72
2022-10-11T04:25:15.201Z,101830.03
2022-10-11T04:27:42.575Z,101832.69
2022-10-11T04:30:11.823Z,101830.31
2022-10-11T04:32:40.496Z,101842.16
2022-10-11T04:35:08.391Z,101841.13
2022-10-11T04:37:35.840Z,101850.81
2022-10-11T04:40:03.592Z,101847.53
2022-10-11T04:42:30.981Z,101860.81
2022-10-11T04:44:58.650Z,101853.31
2022-10-11T04:47:26.087Z,101849.91
2022-10-11T04:49:54.787Z,101857.50
2022-10-11T04:52:25.560Z,101860.31
2022-10-11T04:54:53.388Z,101865.53
2022-10-11T04:57:20.824Z,101865.34
2022-10-11T04:59:50.308Z,101871.28
2022-10-11T05:02:18.015Z,101871.84
2022-10-11T05:04:45.499Z,101876.97
2022-10-11T05:07:14.621Z,101874.78
2022-10-11T05:09:42.031Z,101878.56
2022-10-11T05:12:09.556Z,101874.84
2022-10-11T05:14:37.196Z,101882.75
2022-10-11T05:17:05.037Z,101889.59
2022-10-11T05:19:32.427Z,101894.69
2022-10-11T05:21:59.819Z,101898.16
2022-10-11T05:24:28.506Z,101902.09
2022-10-11T05:26:58.699Z,101894.63
2022-10-11T05:29:29.997Z,101908.38
2022-10-11T05:31:57.644Z,101903.44
2022-10-11T05:34:25.088Z,101911.88
2022-10-11T05:36:52.457Z,101910.16
2022-10-11T05:39:19.799Z,101911.19
2022-10-11T05:41:48.558Z,101915.78
2022-10-11T05:44:15.969Z,101924.06
2022-10-11T05:46:43.430Z,101921.59
2022-10-11T05:49:10.829Z,101926.69
2022-10-11T05:51:38.204Z,101926.69
2022-10-11T05:54:05.594Z,101927.78
2022-10-11T05:56:32.973Z,101932.75
2022-10-11T05:59:02.660Z,101934.50
2022-10-11T06:01:30.267Z,101939.63
2022-10-11T06:03:57.734Z,101939.50
2022-10-11T06:06:25.128Z,101942.94
2022-10-11T06:08:52.663Z,101944.22
2022-10-11T06:11:22.478Z,101948.19
2022-10-11T06:14:02.624Z,101951.69
2022-10-11T06:16:30.163Z,101955.59
2022-10-11T06:18:58.882Z,101958.00
2022-10-11T06:21:26.865Z,101964.16
2022-10-11T06:24:00.812Z,101963.34
2022-10-11T06:26:29.105Z,101966.16
2022-10-11T06:28:56.635Z,101970.78
2022-10-11T06:31:26.168Z,101974.44
2022-10-11T06:33:53.552Z,101979.88
2022-10-11T06:36:20.931Z,101976.66
2022-10-11T06:38:48.380Z,101983.09
2022-10-11T06:41:19.026Z,101985.06
2022-10-11T06:43:49.426Z,101984.84
2022-10-11T06:46:17.643Z,101988.97
2022-10-11T06:48:48.036Z,101985.59
2022-10-11T06:51:18.623Z,101995.00
2022-10-11T06:53:49.884Z,101996.47
2022-10-11T06:56:17.276Z,102001.38
2022-10-11T06:58:44.829Z,102007.06
2022-10-11T07:01:16.262Z,102007.25
2022-10-11T07:03:43.679Z,102011.19
2022-10-11T07:06:14.894Z,102012.72
2022-10-11T07:08:42.506Z,102017.97
2022-10-11T07:11:12.088Z,102010.34
2022-10-11T07:13:41.404Z,102030.28
2022-10-11T07:16:10.981Z,102027.69
2022-10-11T07:18:38.747Z,102027.69
2022-10-11T07:21:07.986Z,102034.47
2022-10-11T07:23:36.695Z,102040.50
2022-10-11T07:26:05.087Z,102038.09
2022-10-11T07:28:32.745Z,102046.38
2022-10-11T07:31:00.200Z,102048.50
2022-10-11T07:33:27.587Z,102046.97
2022-10-11T07:35:58.357Z,102041.47
2022-10-11T07:38:25.744Z,102053.16
2022-10-11T07:40:54.846Z,102056.78
2022-10-11T07:43:22.258Z,102058.69
2022-10-11T07:45:54.288Z,102061.41
2022-10-11T07:48:21.897Z,102068.47
2022-10-11T07:50:49.786Z,102077.81
2022-10-11T07:53:17.247Z,102069.47
2022-10-11T07:55:44.673Z,102069.72
2022-10-11T07:58:14.149Z,102070.75
2022-10-11T08:00:42.689Z,102074.00
2022-10-11T08:03:10.444Z,102081.56
2022-10-11T08:05:39.057Z,102072.78
2022-10-11T08:08:06.515Z,102061.69
2022-10-11T08:10:38.460Z,102068.09
2022-10-11T08:13:06.153Z,102067.78
2022-10-11T08:15:35.030Z,102066.06
2022-10-11T08:18:02.612Z,102057.31
2022-10-11T08:20:31.125Z,102066.88
2022-10-11T08:22:58.563Z,102062.66
2022-10-11T08:25:26.051Z,102060.66
2022-10-11T08:27:53.434Z,102065.59
2022-10-11T08:30:20.860Z,102075.75
2022-10-11T08:32:49.553Z,102079.19
2022-10-11T08:35:16.907Z,102084.44
2022-10-11T08:37:44.335Z,102083.16
2022-10-11T08:40:16.598Z,102087.47
2022-10-11T08:42:46.482Z,102083.75
2022-10-11T08:45:33.312Z,102089.59
2022-10-11T08:48:14.379Z,102087.09
2022-10-11T08:50:43.649Z,102081.19
2022-10-11T08:53:19.667Z,102090.53
2022-10-11T08:55:51.670Z,102092.53
2022-10-11T08:58:22.912Z,102098.13
2022-10-11T09:00:53.755Z,102089.72
2022-10-11T09:03:31.808Z,102097.88
2022-10-11T09:06:09.090Z,102098.97
2022-10-11T09:08:49.403Z,102104.50
2022-10-11T09:11:26.718Z,102105.66
2022-10-11T09:14:07.275Z,102110.22
2022-10-11T09:16:48.501Z,102115.31
2022-10-11T09:19:36.466Z,102102.56
2022-10-11T09:22:13.173Z,102099.06
2022-10-11T09:24:53.295Z,102105.94
2022-10-11T09:27:49.937Z,102099.81
2022-10-11T09:30:16.078Z,102097.47
2022-10-11T09:32:47.323Z,102094.94
2022-10-11T09:35:18.380Z,102099.38
2022-10-11T09:37:52.195Z,102100.53
2022-10-11T09:40:33.811Z,102102.91
2022-10-11T09:43:01.234Z,102099.59
2022-10-11T09:45:28.647Z,102102.25
2022-10-11T09:47:58.623Z,102108.75
2022-10-11T09:50:30.584Z,102102.63
2022-10-11T09:53:00.329Z,102102.50
2022-10-11T09:55:33.846Z,102102.28
2022-10-11T09:58:01.707Z,102098.19
2022-10-11T10:00:33.455Z,102097.84
2022-10-11T10:03:02.482Z,102099.56
2022-10-11T10:05:32.473Z,102095.38
2022-10-11T10:08:05.016Z,102100.50
2022-10-11T10:10:38.545Z,102101.75
2022-10-11T10:13:07.950Z,102112.44
2022-10-11T10:15:37.656Z,102104.28
2022-10-11T10:18:10.379Z,102105.72
2022-10-11T10:20:39.184Z,102120.13
2022-10-11T10:23:10.846Z,102121.06
2022-10-11T10:25:43.593Z,102130.50
2022-10-11T10:28:21.162Z,102122.66
2022-10-11T10:30:54.499Z,102117.75
2022-10-11T10:33:23.849Z,102118.81
2022-10-11T10:35:57.505Z,102118.41
2022-10-11T10:38:30.075Z,102124.13
2022-10-11T10:41:00.030Z,102125.41
2022-10-11T10:43:30.578Z,102119.34
2022-10-11T10:46:18.314Z,102131.50
2022-10-11T10:51:54.689Z,102120.53
2022-10-11T10:54:36.178Z,102125.72
2022-10-11T10:57:11.841Z,102118.97
2022-10-11T10:59:55.089Z,102120.88
2022-10-11T11:02:40.367Z,102126.84
2022-10-11T11:05:18.768Z,102120.47
2022-10-11T11:07:53.702Z,102116.03
2022-10-11T11:10:23.800Z,102123.19
2022-10-11T11:13:05.199Z,102126.06
2022-10-11T11:15:38.508Z,102120.31
2022-10-11T11:18:22.120Z,102115.25
2022-10-11T11:21:02.473Z,102110.25
2022-10-11T11:23:40.296Z,102113.00
2022-10-11T11:26:13.810Z,102114.22
2022-10-11T11:28:51.019Z,102107.16
2022-10-11T11:31:36.452Z,102119.69
2022-10-11T11:34:11.267Z,102110.28
2022-10-11T11:36:44.018Z,102104.22
2022-10-11T11:39:17.760Z,102116.25
2022-10-11T11:41:51.825Z,102116.72
2022-10-11T11:44:27.516Z,102112.81
2022-10-11T11:47:01.426Z,102113.13
2022-10-11T11:49:32.814Z,102117.28
2022-10-11T11:52:01.153Z,102108.84
2022-10-11T11:54:43.305Z,102110.13
2022-10-11T11:57:24.554Z,102112.09
2022-10-11T11:59:57.857Z,102103.09
2022-10-11T12:02:36.582Z,102111.72
2022-10-11T12:05:06.984Z,102109.94
2022-10-11T12:07:49.786Z,102102.59
2022-10-11T12:10:26.046Z,102107.13
2022-10-11T12:13:07.080Z,102104.84
2022-10-11T12:15:35.065Z,102103.06
2022-10-11T12:18:15.127Z,102108.19
2022-10-11T12:20:44.661Z,102103.31
2022-10-11T12:23:50.561Z,102104.25
2022-10-11T12:26:44.003Z,102099.78
2022-10-11T12:29:43.551Z,102097.97
2022-10-11T12:32:47.899Z,102104.44
2022-10-11T12:35:39.965Z,102095.38
2022-10-11T12:38:16.563Z,102095.00
2022-10-11T12:40:47.060Z,102083.97
2022-10-11T12:43:33.635Z,102081.44
2022-10-11T12:46:34.094Z,102085.94
2022-10-11T12:49:16.483Z,102085.22
2022-10-11T12:51:56.578Z,102085.63
2022-10-11T12:55:02.903Z,102082.91
2022-10-11T12:58:07.801Z,102085.53
2022-10-11T13:00:46.654Z,102084.84
2022-10-11T13:03:32.222Z,102099.13
2022-10-11T13:06:02.022Z,102095.44
2022-10-11T13:08:33.403Z,102099.31
2022-10-11T13:11:04.262Z,102097.97
2022-10-11T13:13:35.561Z,102106.75
2022-10-11T13:16:10.031Z,102101.88
2022-10-11T13:18:37.503Z,102112.31
2022-10-11T13:21:20.290Z,102108.31
2022-10-11T13:23:50.646Z,102115.66
2022-10-11T13:26:18.110Z,102111.66
2022-10-11T13:28:46.122Z,102099.00
2022-10-11T13:31:14.963Z,102108.22
2022-10-11T13:33:45.795Z,102100.69
2022-10-11T13:36:17.589Z,102101.44
2022-10-11T13:38:53.813Z,102093.00
2022-10-11T13:41:21.952Z,102095.75
2022-10-11T13:43:50.220Z,102091.31
2022-10-11T13:46:22.501Z,102095.09
2022-10-11T13:49:00.476Z,102094.38
2022-10-11T13:51:32.508Z,102097.19
2022-10-11T13:54:03.001Z,102093.81
2022-10-11T13:56:33.090Z,102104.16
2022-10-11T13:59:01.585Z,102095.31
2022-10-11T14:01:39.209Z,102100.84
2022-10-11T14:04:10.144Z,102100.72
2022-10-11T14:06:43.941Z,102095.72
2022-10-11T14:09:20.962Z,102097.69
2022-10-11T14:11:48.667Z,102103.53
2022-10-11T14:14:41.260Z,102097.00
2022-10-11T14:17:16.360Z,102096.53
2022-10-11T14:19:44.528Z,102092.91
2022-10-11T14:22:15.849Z,102096.84
2022-10-11T14:24:43.619Z,102093.22
2022-10-11T14:27:17.665Z,102091.28
2022-10-11T14:30:00.314Z,102091.72
2022-10-11T14:32:36.353Z,102087.66
2022-10-11T14:35:04.710Z,102083.88
2022-10-11T14:37:32.311Z,102092.97
2022-10-11T14:39:59.772Z,102101.28
2022-10-11T14:42:27.138Z,102103.81
2022-10-11T14:44:54.550Z,102101.47
2022-10-11T14:47:21.946Z,102100.22
2022-10-11T14:49:50.958Z,102089.81
2022-10-11T14:52:18.352Z,102095.22
2022-10-11T14:54:45.725Z,102102.13
2022-10-11T14:57:15.260Z,102097.44
2022-10-11T14:59:42.685Z,102099.44
2022-10-11T15:02:13.155Z,102094.63
2022-10-11T15:04:40.529Z,102092.25
2022-10-11T15:07:09.474Z,102101.56
2022-10-11T15:09:36.843Z,102099.19
2022-10-11T15:12:04.587Z,102100.44
2022-10-11T15:14:31.959Z,102094.91
2022-10-11T15:16:59.349Z,102094.75
2022-10-11T15:19:26.781Z,102087.28
2022-10-11T15:21:54.272Z,102097.13
2022-10-11T15:24:22.971Z,102085.66
2022-10-11T15:26:50.615Z,102087.41
2022-10-11T15:29:20.301Z,102089.28
2022-10-11T15:31:49.255Z,102084.63
2022-10-11T15:34:17.251Z,102084.81
2022-10-11T15:36:44.739Z,102085.72
2022-10-11T15:39:27.362Z,102086.59
2022-10-11T15:41:54.831Z,102090.97
2022-10-11T15:44:22.246Z,102087.53
2022-10-11T15:46:49.707Z,102084.75
2022-10-11T15:49:18.164Z,102087.44
2022-10-11T15:51:45.558Z,102093.44
2022-10-11T15:54:12.946Z,102097.81
2022-10-11T15:56:41.646Z,102088.16
2022-10-11T15:59:11.195Z,102096.88
2022-10-11T16:01:38.608Z,102098.56
2022-10-11T16:04:06.270Z,102100.97
2022-10-11T16:06:33.687Z,102100.22
2022-10-11T16:09:01.100Z,102106.19
2022-10-11T16:11:28.499Z,102101.69
2022-10-11T16:13:57.383Z,102110.31
2022-10-11T16:16:24.743Z,102100.84
2022-10-11T16:18:52.161Z,102102.50
2022-10-11T16:21:20.817Z,102117.81
2022-10-11T16:23:48.277Z,102111.03
2022-10-11T16:26:16.904Z,102122.91
2022-10-11T16:28:44.567Z,102116.00
2022-10-11T16:31:18.074Z,102124.59
2022-10-11T16:33:48.716Z,102116.91
2022-10-11T16:36:35.448Z,102122.69
2022-10-11T16:39:07.100Z,102127.06
2022-10-11T16:41:34.619Z,102122.84
2022-10-11T16:44:02.306Z,102127.06
2022-10-11T16:46:32.219Z,102128.63
2022-10-11T16:48:59.926Z,102129.34
2022-10-11T16:51:27.361Z,102127.66
2022-10-11T16:53:54.768Z,102130.19
2022-10-11T16:56:24.064Z,102127.50
2022-10-11T16:58:52.223Z,102135.25
2022-10-11T17:01:20.059Z,102137.84
2022-10-11T17:03:49.456Z,102133.41
2022-10-11T17:06:17.374Z,102131.72
2022-10-11T17:08:44.794Z,102138.66
2022-10-11T17:11:12.283Z,102142.72
2022-10-11T17:13:39.676Z,102140.25
2022-10-11T17:16:08.487Z,102144.44
2022-10-11T17:18:36.888Z,102145.59
2022-10-11T17:21:08.256Z,102145.13
2022-10-11T17:26:10.847Z,102149.19
2022-10-11T17:28:39.423Z,102155.78
2022-10-11T17:31:08.976Z,102164.53
2022-10-11T17:33:36.883Z,102149.16
2022-10-11T17:36:14.824Z,102144.78
2022-10-11T17:38:42.339Z,102149.31
2022-10-11T17:41:11.006Z,102144.09
2022-10-11T17:43:39.057Z,102149.63
2022-10-11T17:46:08.826Z,102158.44
2022-10-11T17:48:39.195Z,102156.84
2022-10-11T17:51:09.836Z,102162.59
2022-10-11T17:53:37.955Z,102155.84
2022-10-11T17:56:06.683Z,102154.06
2022-10-11T17:58:34.345Z,102154.53
2022-10-11T18:01:03.340Z,102153.69
2022-10-11T18:03:30.979Z,102152.16
2022-10-11T18:05:58.507Z,102154.69
2022-10-11T18:08:27.444Z,102160.81
2022-10-11T18:10:54.801Z,102167.03
2022-10-11T18:13:22.358Z,102163.56
2022-10-11T18:15:53.486Z,102160.53
2022-10-11T18:18:21.155Z,102162.03
2022-10-11T18:20:49.619Z,102164.53
2022-10-11T18:23:19.018Z,102164.53
2022-10-11T18:25:49.373Z,102162.66
2022-10-11T18:28:18.002Z,102166.22
2022-10-11T18:30:47.417Z,102162.59
2022-10-11T18:33:16.579Z,102165.00
2022-10-11T18:35:44.186Z,102164.94
2022-10-11T18:38:11.641Z,102164.47
2022-10-11T18:40:44.728Z,102164.34
2022-10-11T18:43:15.648Z,102162.53
2022-10-11T18:45:43.045Z,102160.66
2022-10-11T18:48:10.476Z,102159.00
2022-10-11T18:50:37.942Z,102164.03
2022-10-11T18:55:38.218Z,102160.56
2022-10-11T18:58:05.615Z,102161.22
2022-10-11T19:00:42.421Z,102154.19
2022-10-11T19:03:09.906Z,102162.00
2022-10-11T19:05:39.277Z,102157.50
2022-10-11T19:08:06.993Z,102160.09
2022-10-11T19:10:35.061Z,102164.28
2022-10-11T19:13:02.543Z,102156.53
2022-10-11T19:15:30.034Z,102158.38
2022-10-11T19:17:58.766Z,102156.59
2022-10-11T19:20:26.137Z,102158.31
2022-10-11T19:22:53.587Z,102145.25
2022-10-11T19:25:20.992Z,102152.81
2022-10-11T19:27:48.395Z,102158.81
2022-10-11T19:30:15.800Z,102161.56
2022-10-11T19:32:43.381Z,102150.19
2022-10-11T19:35:19.036Z,102152.00
2022-10-11T19:37:47.362Z,102153.63
2022-10-11T19:40:14.816Z,102148.50
2022-10-11T19:42:42.235Z,102154.44
2022-10-11T19:45:10.280Z,102154.59
2022-10-11T19:47:37.889Z,102152.84
2022-10-11T19:50:06.062Z,102154.44
2022-10-11T19:52:34.886Z,102158.59
2022-10-11T19:55:02.355Z,102161.06
2022-10-11T19:57:30.078Z,102166.38
2022-10-11T19:59:58.440Z,102160.72
2022-10-11T20:02:25.834Z,102165.09
2022-10-11T20:04:53.478Z,102163.50
2022-10-11T20:07:20.903Z,102168.22
2022-10-11T20:09:49.705Z,102170.94
2022-10-11T20:12:17.080Z,102163.69
2022-10-11T20:14:44.518Z,102158.44
2022-10-11T20:17:12.131Z,102163.75
2022-10-11T20:19:39.519Z,102155.13
2022-10-11T20:22:08.804Z,102168.06
2022-10-11T20:24:36.205Z,102162.81
2022-10-11T20:27:06.288Z,102167.66
2022-10-11T20:29:33.730Z,102165.13
2022-10-11T20:32:01.199Z,102171.84
2022-10-11T20:34:28.829Z,102171.84
2022-10-11T20:36:56.251Z,102172.75
2022-10-11T20:39:23.808Z,102182.59
2022-10-11T20:41:51.465Z,102178.91
2022-10-11T20:44:20.154Z,102179.84
2022-10-11T20:46:47.603Z,102176.41
2022-10-11T20:49:15.241Z,102179.44
2022-10-11T20:51:43.744Z,102176.00
2022-10-11T20:54:13.529Z,102181.66
2022-10-11T20:56:41.496Z,102181.56
2022-10-11T20:59:10.075Z,102181.56
2022-10-11T21:01:40.967Z,102175.13
2022-10-11T21:04:11.287Z,102177.66
2022-10-11T21:06:38.763Z,102181.59
2022-10-11T21:09:06.143Z,102185.31
2022-10-11T21:11:35.479Z,102178.41
2022-10-11T21:14:05.082Z,102181.66
2022-10-11T21:16:32.649Z,102180.16
2022-10-11T21:19:02.809Z,102180.56
2022-10-11T21:21:31.367Z,102176.00
2022-10-11T21:24:00.196Z,102185.47
2022-10-11T21:26:29.091Z,102190.25
2022-10-11T21:28:59.160Z,102193.69
2022-10-11T21:31:32.923Z,102193.31
2022-10-11T21:34:03.932Z,102183.59
2022-10-11T21:36:31.459Z,102185.38
2022-10-11T21:38:59.103Z,102193.06
2022-10-11T21:41:29.073Z,102195.31
2022-10-11T21:43:56.995Z,102192.72
2022-10-11T21:46:41.645Z,102196.97
2022-10-11T21:49:15.231Z,102185.94
2022-10-11T21:51:43.930Z,102196.47
2022-10-11T21:54:11.344Z,102192.13
2022-10-11T21:56:39.348Z,102190.59
2022-10-11T21:59:11.094Z,102189.47
2022-10-11T22:01:41.929Z,102182.66
2022-10-11T22:04:11.055Z,102183.13
2022-10-11T22:06:41.062Z,102188.66
2022-10-11T22:09:09.739Z,102189.06
2022-10-11T22:11:38.674Z,102190.03
2022-10-11T22:14:06.237Z,102191.03
2022-10-11T22:16:34.925Z,102185.25
2022-10-11T22:19:02.527Z,102191.38
2022-10-11T22:21:30.153Z,102188.25
2022-10-11T22:23:58.899Z,102189.06
2022-10-11T22:26:29.836Z,102187.09
2022-10-11T22:28:57.461Z,102190.00
2022-10-11T22:31:24.952Z,102188.72
2022-10-11T22:33:54.756Z,102188.22
2022-10-11T22:36:24.130Z,102189.22
2022-10-11T22:38:52.148Z,102185.78
2022-10-11T22:41:21.165Z,102190.78
2022-10-11T22:43:48.780Z,102187.00
2022-10-11T22:46:16.393Z,102186.09
2022-10-11T22:48:43.847Z,102185.53
2022-10-11T22:51:11.249Z,102192.19
2022-10-11T22:53:39.661Z,102190.06
2022-10-11T22:56:08.740Z,102196.00
2022-10-11T22:58:37.487Z,102183.50
2022-10-11T23:01:09.449Z,102191.97
2022-10-11T23:03:37.141Z,102186.31
2022-10-11T23:06:05.032Z,102191.28
2022-10-11T23:08:32.695Z,102186.31
2022-10-11T23:11:03.493Z,102186.72
2022-10-11T23:13:30.887Z,102184.69
2022-10-11T23:15:59.692Z,102189.06
2022-10-11T23:18:27.080Z,102195.13
2022-10-11T23:20:54.470Z,102193.16
2022-10-11T23:23:21.824Z,102189.81
2022-10-11T23:25:49.230Z,102186.72
2022-10-11T23:28:16.662Z,102185.31
2022-10-11T23:30:44.099Z,102185.22
2022-10-11T23:33:12.839Z,102188.38
2022-10-11T23:35:40.293Z,102191.97
2022-10-11T23:38:07.804Z,102194.53
2022-10-11T23:40:37.068Z,102192.16
2022-10-11T23:43:04.423Z,102198.94
2022-10-11T23:45:31.787Z,102197.53
2022-10-11T23:47:59.246Z,102195.78
2022-10-11T23:50:27.974Z,102186.22
2022-10-11T23:52:56.996Z,102192.09
2022-10-11T23:55:24.367Z,102199.28
2022-10-11T23:57:51.899Z,102195.31
